sensor_id;sensor_type;location;lat;lon;timestamp;P1;durP1;ratioP1;P2;durP2;ratioP2
67363;SDS011;54250;45.572;38.086;2024-01-27T00:01:42;4.75;;;2.60;;
67363;SDS011;54250;45.572;38.086;2024-01-27T00:04:09;2.53;;;1.67;;
67363;SDS011;54250;45.572;38.086;2024-01-27T00:06:35;3.63;;;2.60;;
67363;SDS011;54250;45.572;38.086;2024-01-27T00:09:02;4.05;;;1.77;;
67363;SDS011;54250;45.572;38.086;2024-01-27T00:11:28;4.07;;;1.67;;
67363;SDS011;54250;45.572;38.086;2024-01-27T00:13:54;4.30;;;1.63;;
67363;SDS011;54250;45.572;38.086;2024-01-27T00:16:20;3.00;;;1.70;;
67363;SDS011;54250;45.572;38.086;2024-01-27T00:18:46;5.68;;;3.00;;
67363;SDS011;54250;45.572;38.086;2024-01-27T00:21:12;4.30;;;2.53;;
67363;SDS011;54250;45.572;38.086;2024-01-27T00:23:38;4.38;;;2.78;;
67363;SDS011;54250;45.572;38.086;2024-01-27T00:26:04;4.38;;;2.78;;
67363;SDS011;54250;45.572;38.086;2024-01-27T00:28:30;3.95;;;2.50;;
67363;SDS011;54250;45.572;38.086;2024-01-27T00:30:56;5.95;;;2.47;;
67363;SDS011;54250;45.572;38.086;2024-01-27T00:33:22;4.57;;;2.50;;
67363;SDS011;54250;45.572;38.086;2024-01-27T00:35:48;4.35;;;2.33;;
67363;SDS011;54250;45.572;38.086;2024-01-27T00:38:14;3.22;;;2.30;;
67363;SDS011;54250;45.572;38.086;2024-01-27T00:40:40;11.05;;;2.72;;
67363;SDS011;54250;45.572;38.086;2024-01-27T00:43:06;4.72;;;3.10;;
67363;SDS011;54250;45.572;38.086;2024-01-27T00:45:32;5.35;;;2.63;;
67363;SDS011;54250;45.572;38.086;2024-01-27T00:47:58;3.85;;;2.60;;
67363;SDS011;54250;45.572;38.086;2024-01-27T00:50:24;4.55;;;2.47;;
67363;SDS011;54250;45.572;38.086;2024-01-27T00:52:50;3.85;;;2.45;;
67363;SDS011;54250;45.572;38.086;2024-01-27T00:55:16;3.95;;;2.33;;
67363;SDS011;54250;45.572;38.086;2024-01-27T00:57:45;5.05;;;2.38;;
67363;SDS011;54250;45.572;38.086;2024-01-27T01:00:11;3.95;;;2.42;;
67363;SDS011;54250;45.572;38.086;2024-01-27T01:02:38;2.65;;;1.92;;
67363;SDS011;54250;45.572;38.086;2024-01-27T01:05:04;2.80;;;2.05;;
67363;SDS011;54250;45.572;38.086;2024-01-27T01:07:30;3.53;;;2.05;;
67363;SDS011;54250;45.572;38.086;2024-01-27T01:09:56;6.65;;;2.42;;
67363;SDS011;54250;45.572;38.086;2024-01-27T01:12:23;4.63;;;3.05;;
67363;SDS011;54250;45.572;38.086;2024-01-27T01:14:50;5.72;;;2.78;;
67363;SDS011;54250;45.572;38.086;2024-01-27T01:17:17;3.70;;;2.70;;
67363;SDS011;54250;45.572;38.086;2024-01-27T01:19:43;9.10;;;3.20;;
67363;SDS011;54250;45.572;38.086;2024-01-27T01:22:09;9.95;;;3.58;;
67363;SDS011;54250;45.572;38.086;2024-01-27T01:24:35;5.82;;;2.63;;
67363;SDS011;54250;45.572;38.086;2024-01-27T01:27:01;4.78;;;3.25;;
67363;SDS011;54250;45.572;38.086;2024-01-27T01:29:26;4.35;;;3.10;;
67363;SDS011;54250;45.572;38.086;2024-01-27T01:31:53;4.63;;;3.13;;
67363;SDS011;54250;45.572;38.086;2024-01-27T01:34:18;5.53;;;3.15;;
67363;SDS011;54250;45.572;38.086;2024-01-27T01:36:44;8.60;;;3.58;;
67363;SDS011;54250;45.572;38.086;2024-01-27T01:39:11;3.50;;;2.38;;
67363;SDS011;54250;45.572;38.086;2024-01-27T01:41:40;7.05;;;3.22;;
67363;SDS011;54250;45.572;38.086;2024-01-27T01:44:06;6.50;;;2.75;;
67363;SDS011;54250;45.572;38.086;2024-01-27T01:46:33;4.50;;;2.85;;
67363;SDS011;54250;45.572;38.086;2024-01-27T01:48:59;7.32;;;3.55;;
67363;SDS011;54250;45.572;38.086;2024-01-27T01:51:26;9.25;;;3.15;;
67363;SDS011;54250;45.572;38.086;2024-01-27T01:53:54;8.52;;;3.08;;
67363;SDS011;54250;45.572;38.086;2024-01-27T01:56:23;5.43;;;3.35;;
67363;SDS011;54250;45.572;38.086;2024-01-27T01:58:49;3.42;;;2.00;;
67363;SDS011;54250;45.572;38.086;2024-01-27T02:01:18;9.23;;;2.30;;
67363;SDS011;54250;45.572;38.086;2024-01-27T02:03:51;3.58;;;2.72;;
67363;SDS011;54250;45.572;38.086;2024-01-27T02:06:20;5.05;;;2.38;;
67363;SDS011;54250;45.572;38.086;2024-01-27T02:08:47;5.80;;;3.33;;
67363;SDS011;54250;45.572;38.086;2024-01-27T02:11:12;3.55;;;2.33;;
67363;SDS011;54250;45.572;38.086;2024-01-27T02:13:38;3.28;;;2.35;;
67363;SDS011;54250;45.572;38.086;2024-01-27T02:16:05;5.95;;;2.95;;
67363;SDS011;54250;45.572;38.086;2024-01-27T02:18:31;8.27;;;2.55;;
67363;SDS011;54250;45.572;38.086;2024-01-27T02:20:56;3.85;;;3.00;;
67363;SDS011;54250;45.572;38.086;2024-01-27T02:23:22;4.82;;;3.10;;
67363;SDS011;54250;45.572;38.086;2024-01-27T02:25:48;5.25;;;3.38;;
67363;SDS011;54250;45.572;38.086;2024-01-27T02:28:16;4.70;;;3.17;;
67363;SDS011;54250;45.572;38.086;2024-01-27T02:30:42;5.38;;;2.78;;
67363;SDS011;54250;45.572;38.086;2024-01-27T02:33:08;4.72;;;3.05;;
67363;SDS011;54250;45.572;38.086;2024-01-27T02:35:34;9.52;;;2.95;;
67363;SDS011;54250;45.572;38.086;2024-01-27T02:38:00;3.83;;;3.08;;
67363;SDS011;54250;45.572;38.086;2024-01-27T02:40:26;6.05;;;3.17;;
67363;SDS011;54250;45.572;38.086;2024-01-27T02:42:52;4.13;;;3.10;;
67363;SDS011;54250;45.572;38.086;2024-01-27T02:45:18;5.93;;;3.50;;
67363;SDS011;54250;45.572;38.086;2024-01-27T02:47:44;5.57;;;2.80;;
67363;SDS011;54250;45.572;38.086;2024-01-27T02:50:10;4.60;;;3.00;;
67363;SDS011;54250;45.572;38.086;2024-01-27T02:52:37;6.32;;;3.33;;
67363;SDS011;54250;45.572;38.086;2024-01-27T02:55:02;5.78;;;3.05;;
67363;SDS011;54250;45.572;38.086;2024-01-27T02:57:29;4.80;;;3.35;;
67363;SDS011;54250;45.572;38.086;2024-01-27T02:59:55;8.20;;;3.13;;
67363;SDS011;54250;45.572;38.086;2024-01-27T03:02:21;5.75;;;3.20;;
67363;SDS011;54250;45.572;38.086;2024-01-27T03:04:46;8.38;;;3.88;;
67363;SDS011;54250;45.572;38.086;2024-01-27T03:07:12;6.38;;;3.17;;
67363;SDS011;54250;45.572;38.086;2024-01-27T03:09:38;3.83;;;2.80;;
67363;SDS011;54250;45.572;38.086;2024-01-27T03:12:04;5.47;;;3.40;;
67363;SDS011;54250;45.572;38.086;2024-01-27T03:14:30;4.38;;;3.03;;
67363;SDS011;54250;45.572;38.086;2024-01-27T03:16:56;4.75;;;3.22;;
67363;SDS011;54250;45.572;38.086;2024-01-27T03:19:23;4.72;;;3.28;;
67363;SDS011;54250;45.572;38.086;2024-01-27T03:21:49;7.97;;;3.63;;
67363;SDS011;54250;45.572;38.086;2024-01-27T03:24:15;7.93;;;4.03;;
67363;SDS011;54250;45.572;38.086;2024-01-27T03:26:41;4.20;;;3.00;;
67363;SDS011;54250;45.572;38.086;2024-01-27T03:29:07;8.35;;;4.18;;
67363;SDS011;54250;45.572;38.086;2024-01-27T03:31:33;6.85;;;3.72;;
67363;SDS011;54250;45.572;38.086;2024-01-27T03:33:59;5.25;;;2.80;;
67363;SDS011;54250;45.572;38.086;2024-01-27T03:36:26;7.85;;;3.72;;
67363;SDS011;54250;45.572;38.086;2024-01-27T03:38:52;5.75;;;3.22;;
67363;SDS011;54250;45.572;38.086;2024-01-27T03:41:18;4.22;;;3.00;;
67363;SDS011;54250;45.572;38.086;2024-01-27T03:43:44;13.82;;;3.50;;
67363;SDS011;54250;45.572;38.086;2024-01-27T03:46:10;7.82;;;3.63;;
67363;SDS011;54250;45.572;38.086;2024-01-27T03:48:36;5.80;;;3.08;;
67363;SDS011;54250;45.572;38.086;2024-01-27T03:51:02;9.63;;;2.97;;
67363;SDS011;54250;45.572;38.086;2024-01-27T03:53:28;5.32;;;3.42;;
67363;SDS011;54250;45.572;38.086;2024-01-27T03:55:55;5.68;;;3.08;;
67363;SDS011;54250;45.572;38.086;2024-01-27T03:58:24;7.65;;;3.53;;
67363;SDS011;54250;45.572;38.086;2024-01-27T04:00:51;6.53;;;3.05;;
67363;SDS011;54250;45.572;38.086;2024-01-27T04:03:17;6.20;;;2.85;;
67363;SDS011;54250;45.572;38.086;2024-01-27T04:05:43;16.25;;;3.15;;
67363;SDS011;54250;45.572;38.086;2024-01-27T04:08:09;6.55;;;2.95;;
67363;SDS011;54250;45.572;38.086;2024-01-27T04:10:36;4.82;;;2.85;;
67363;SDS011;54250;45.572;38.086;2024-01-27T04:13:02;13.15;;;3.20;;
67363;SDS011;54250;45.572;38.086;2024-01-27T04:15:28;5.63;;;3.00;;
67363;SDS011;54250;45.572;38.086;2024-01-27T04:17:54;13.18;;;3.55;;
67363;SDS011;54250;45.572;38.086;2024-01-27T04:20:21;4.22;;;2.58;;
67363;SDS011;54250;45.572;38.086;2024-01-27T04:22:47;5.38;;;3.03;;
67363;SDS011;54250;45.572;38.086;2024-01-27T04:25:13;5.07;;;3.20;;
67363;SDS011;54250;45.572;38.086;2024-01-27T04:27:39;5.13;;;3.30;;
67363;SDS011;54250;45.572;38.086;2024-01-27T04:30:07;5.32;;;3.00;;
67363;SDS011;54250;45.572;38.086;2024-01-27T04:32:34;5.25;;;3.25;;
67363;SDS011;54250;45.572;38.086;2024-01-27T04:35:01;6.55;;;3.58;;
67363;SDS011;54250;45.572;38.086;2024-01-27T04:37:27;4.28;;;3.47;;
67363;SDS011;54250;45.572;38.086;2024-01-27T04:39:53;6.10;;;3.65;;
67363;SDS011;54250;45.572;38.086;2024-01-27T04:42:18;5.25;;;2.70;;
67363;SDS011;54250;45.572;38.086;2024-01-27T04:44:45;6.20;;;3.13;;
67363;SDS011;54250;45.572;38.086;2024-01-27T04:47:10;6.97;;;3.70;;
67363;SDS011;54250;45.572;38.086;2024-01-27T04:49:36;5.75;;;3.60;;
67363;SDS011;54250;45.572;38.086;2024-01-27T04:52:03;4.57;;;2.63;;
67363;SDS011;54250;45.572;38.086;2024-01-27T04:54:29;3.95;;;2.08;;
67363;SDS011;54250;45.572;38.086;2024-01-27T04:56:55;4.55;;;2.67;;
67363;SDS011;54250;45.572;38.086;2024-01-27T04:59:21;6.22;;;2.72;;
67363;SDS011;54250;45.572;38.086;2024-01-27T05:01:47;6.32;;;2.65;;
67363;SDS011;54250;45.572;38.086;2024-01-27T05:04:13;3.22;;;2.35;;
67363;SDS011;54250;45.572;38.086;2024-01-27T05:06:43;5.97;;;3.13;;
67363;SDS011;54250;45.572;38.086;2024-01-27T05:09:09;3.53;;;2.67;;
67363;SDS011;54250;45.572;38.086;2024-01-27T05:11:35;4.20;;;2.58;;
67363;SDS011;54250;45.572;38.086;2024-01-27T05:14:01;2.47;;;2.10;;
67363;SDS011;54250;45.572;38.086;2024-01-27T05:16:27;5.07;;;2.20;;
67363;SDS011;54250;45.572;38.086;2024-01-27T05:18:54;4.55;;;3.08;;
67363;SDS011;54250;45.572;38.086;2024-01-27T05:21:21;4.55;;;2.78;;
67363;SDS011;54250;45.572;38.086;2024-01-27T05:23:47;8.18;;;3.85;;
67363;SDS011;54250;45.572;38.086;2024-01-27T05:26:13;4.47;;;2.70;;
67363;SDS011;54250;45.572;38.086;2024-01-27T05:28:39;7.18;;;3.03;;
67363;SDS011;54250;45.572;38.086;2024-01-27T05:31:08;5.68;;;3.00;;
67363;SDS011;54250;45.572;38.086;2024-01-27T05:33:37;7.72;;;3.67;;
67363;SDS011;54250;45.572;38.086;2024-01-27T05:36:05;16.77;;;3.65;;
67363;SDS011;54250;45.572;38.086;2024-01-27T05:38:31;5.82;;;3.40;;
67363;SDS011;54250;45.572;38.086;2024-01-27T05:41:00;10.90;;;3.17;;
67363;SDS011;54250;45.572;38.086;2024-01-27T05:43:26;8.35;;;3.20;;
67363;SDS011;54250;45.572;38.086;2024-01-27T05:45:53;5.47;;;3.22;;
67363;SDS011;54250;45.572;38.086;2024-01-27T05:48:19;13.45;;;3.10;;
67363;SDS011;54250;45.572;38.086;2024-01-27T05:50:54;8.10;;;3.20;;
67363;SDS011;54250;45.572;38.086;2024-01-27T05:53:21;9.75;;;4.10;;
67363;SDS011;54250;45.572;38.086;2024-01-27T05:55:47;6.50;;;3.53;;
67363;SDS011;54250;45.572;38.086;2024-01-27T05:58:13;7.18;;;3.67;;
67363;SDS011;54250;45.572;38.086;2024-01-27T06:00:39;5.13;;;3.03;;
67363;SDS011;54250;45.572;38.086;2024-01-27T06:03:05;4.32;;;2.55;;
67363;SDS011;54250;45.572;38.086;2024-01-27T06:05:31;5.25;;;3.08;;
67363;SDS011;54250;45.572;38.086;2024-01-27T06:07:57;4.15;;;2.72;;
67363;SDS011;54250;45.572;38.086;2024-01-27T06:10:23;4.47;;;2.90;;
67363;SDS011;54250;45.572;38.086;2024-01-27T06:12:50;6.15;;;3.03;;
67363;SDS011;54250;45.572;38.086;2024-01-27T06:15:16;10.85;;;4.07;;
67363;SDS011;54250;45.572;38.086;2024-01-27T06:17:42;13.25;;;3.83;;
67363;SDS011;54250;45.572;38.086;2024-01-27T06:20:08;8.13;;;3.90;;
67363;SDS011;54250;45.572;38.086;2024-01-27T06:22:34;5.82;;;2.92;;
67363;SDS011;54250;45.572;38.086;2024-01-27T06:25:00;7.78;;;3.45;;
67363;SDS011;54250;45.572;38.086;2024-01-27T06:27:26;7.57;;;3.45;;
67363;SDS011;54250;45.572;38.086;2024-01-27T06:29:52;11.05;;;3.45;;
67363;SDS011;54250;45.572;38.086;2024-01-27T06:32:17;6.07;;;2.67;;
67363;SDS011;54250;45.572;38.086;2024-01-27T06:34:43;4.88;;;2.42;;
67363;SDS011;54250;45.572;38.086;2024-01-27T06:37:10;6.10;;;3.38;;
67363;SDS011;54250;45.572;38.086;2024-01-27T06:39:35;5.28;;;3.05;;
67363;SDS011;54250;45.572;38.086;2024-01-27T06:42:02;7.00;;;3.88;;
67363;SDS011;54250;45.572;38.086;2024-01-27T06:44:28;4.85;;;2.95;;
67363;SDS011;54250;45.572;38.086;2024-01-27T06:46:54;6.90;;;2.90;;
67363;SDS011;54250;45.572;38.086;2024-01-27T06:49:20;4.13;;;2.80;;
67363;SDS011;54250;45.572;38.086;2024-01-27T06:51:46;5.22;;;3.08;;
67363;SDS011;54250;45.572;38.086;2024-01-27T06:54:11;3.83;;;2.47;;
67363;SDS011;54250;45.572;38.086;2024-01-27T06:56:37;4.32;;;3.10;;
67363;SDS011;54250;45.572;38.086;2024-01-27T06:59:03;4.65;;;2.88;;
67363;SDS011;54250;45.572;38.086;2024-01-27T07:01:29;5.35;;;3.15;;
67363;SDS011;54250;45.572;38.086;2024-01-27T07:03:55;5.43;;;3.22;;
67363;SDS011;54250;45.572;38.086;2024-01-27T07:06:21;6.15;;;3.50;;
67363;SDS011;54250;45.572;38.086;2024-01-27T07:08:47;6.05;;;3.90;;
67363;SDS011;54250;45.572;38.086;2024-01-27T07:11:13;6.43;;;3.83;;
67363;SDS011;54250;45.572;38.086;2024-01-27T07:13:39;8.45;;;3.97;;
67363;SDS011;54250;45.572;38.086;2024-01-27T07:16:06;6.45;;;3.63;;
67363;SDS011;54250;45.572;38.086;2024-01-27T07:18:32;6.10;;;3.92;;
67363;SDS011;54250;45.572;38.086;2024-01-27T07:21:00;6.05;;;3.22;;
67363;SDS011;54250;45.572;38.086;2024-01-27T07:23:27;7.57;;;3.38;;
67363;SDS011;54250;45.572;38.086;2024-01-27T07:25:53;5.78;;;3.20;;
67363;SDS011;54250;45.572;38.086;2024-01-27T07:28:19;5.00;;;3.30;;
67363;SDS011;54250;45.572;38.086;2024-01-27T07:30:45;6.55;;;3.13;;
67363;SDS011;54250;45.572;38.086;2024-01-27T07:33:11;7.43;;;3.42;;
67363;SDS011;54250;45.572;38.086;2024-01-27T07:35:37;8.18;;;3.60;;
67363;SDS011;54250;45.572;38.086;2024-01-27T07:38:03;12.80;;;3.70;;
67363;SDS011;54250;45.572;38.086;2024-01-27T07:40:29;6.43;;;3.90;;
67363;SDS011;54250;45.572;38.086;2024-01-27T07:42:55;12.63;;;3.55;;
67363;SDS011;54250;45.572;38.086;2024-01-27T07:45:21;14.32;;;3.83;;
67363;SDS011;54250;45.572;38.086;2024-01-27T07:47:47;5.90;;;3.47;;
67363;SDS011;54250;45.572;38.086;2024-01-27T07:50:13;10.07;;;3.67;;
67363;SDS011;54250;45.572;38.086;2024-01-27T07:52:39;26.80;;;4.18;;
67363;SDS011;54250;45.572;38.086;2024-01-27T07:55:05;10.32;;;3.38;;
67363;SDS011;54250;45.572;38.086;2024-01-27T07:57:31;5.35;;;3.17;;
67363;SDS011;54250;45.572;38.086;2024-01-27T07:59:57;6.72;;;3.03;;
67363;SDS011;54250;45.572;38.086;2024-01-27T08:02:23;7.28;;;3.05;;
67363;SDS011;54250;45.572;38.086;2024-01-27T08:04:49;4.20;;;2.90;;
67363;SDS011;54250;45.572;38.086;2024-01-27T08:07:15;6.32;;;3.75;;
67363;SDS011;54250;45.572;38.086;2024-01-27T08:09:41;5.38;;;3.05;;
67363;SDS011;54250;45.572;38.086;2024-01-27T08:12:08;8.43;;;3.70;;
67363;SDS011;54250;45.572;38.086;2024-01-27T08:14:36;6.13;;;3.08;;
67363;SDS011;54250;45.572;38.086;2024-01-27T08:17:03;5.25;;;2.90;;
67363;SDS011;54250;45.572;38.086;2024-01-27T08:19:29;5.07;;;3.33;;
67363;SDS011;54250;45.572;38.086;2024-01-27T08:21:55;4.75;;;3.28;;
67363;SDS011;54250;45.572;38.086;2024-01-27T08:24:22;5.10;;;2.47;;
67363;SDS011;54250;45.572;38.086;2024-01-27T08:26:49;10.07;;;2.97;;
67363;SDS011;54250;45.572;38.086;2024-01-27T08:29:16;13.32;;;4.75;;
67363;SDS011;54250;45.572;38.086;2024-01-27T08:31:42;5.70;;;3.25;;
67363;SDS011;54250;45.572;38.086;2024-01-27T08:34:08;5.55;;;3.20;;
67363;SDS011;54250;45.572;38.086;2024-01-27T08:36:34;5.25;;;3.13;;
67363;SDS011;54250;45.572;38.086;2024-01-27T08:39:00;15.43;;;6.47;;
67363;SDS011;54250;45.572;38.086;2024-01-27T08:41:26;7.93;;;4.60;;
67363;SDS011;54250;45.572;38.086;2024-01-27T08:43:52;6.30;;;3.17;;
67363;SDS011;54250;45.572;38.086;2024-01-27T08:46:18;4.68;;;3.08;;
67363;SDS011;54250;45.572;38.086;2024-01-27T08:48:47;9.23;;;4.40;;
67363;SDS011;54250;45.572;38.086;2024-01-27T08:51:14;8.02;;;4.18;;
67363;SDS011;54250;45.572;38.086;2024-01-27T08:53:42;9.15;;;4.72;;
67363;SDS011;54250;45.572;38.086;2024-01-27T08:56:17;3.65;;;2.40;;
67363;SDS011;54250;45.572;38.086;2024-01-27T08:58:43;5.13;;;2.72;;
67363;SDS011;54250;45.572;38.086;2024-01-27T09:01:10;3.75;;;2.58;;
67363;SDS011;54250;45.572;38.086;2024-01-27T09:03:38;4.68;;;2.00;;
67363;SDS011;54250;45.572;38.086;2024-01-27T09:06:08;5.75;;;3.03;;
67363;SDS011;54250;45.572;38.086;2024-01-27T09:08:34;9.65;;;4.30;;
67363;SDS011;54250;45.572;38.086;2024-01-27T09:11:03;11.50;;;5.25;;
67363;SDS011;54250;45.572;38.086;2024-01-27T09:13:30;2.33;;;1.75;;
67363;SDS011;54250;45.572;38.086;2024-01-27T09:15:58;4.97;;;2.90;;
67363;SDS011;54250;45.572;38.086;2024-01-27T09:18:25;4.18;;;2.80;;
67363;SDS011;54250;45.572;38.086;2024-01-27T09:20:52;3.60;;;1.92;;
67363;SDS011;54250;45.572;38.086;2024-01-27T09:23:18;3.03;;;2.28;;
67363;SDS011;54250;45.572;38.086;2024-01-27T09:25:44;4.38;;;2.80;;
67363;SDS011;54250;45.572;38.086;2024-01-27T09:28:09;7.00;;;2.70;;
67363;SDS011;54250;45.572;38.086;2024-01-27T09:30:37;12.60;;;6.72;;
67363;SDS011;54250;45.572;38.086;2024-01-27T09:33:03;7.20;;;4.32;;
67363;SDS011;54250;45.572;38.086;2024-01-27T09:35:29;4.18;;;3.10;;
67363;SDS011;54250;45.572;38.086;2024-01-27T09:37:55;2.75;;;2.15;;
67363;SDS011;54250;45.572;38.086;2024-01-27T09:40:21;3.40;;;2.17;;
67363;SDS011;54250;45.572;38.086;2024-01-27T09:42:51;5.03;;;3.40;;
67363;SDS011;54250;45.572;38.086;2024-01-27T09:45:20;3.17;;;2.22;;
67363;SDS011;54250;45.572;38.086;2024-01-27T09:47:47;6.25;;;2.75;;
67363;SDS011;54250;45.572;38.086;2024-01-27T09:50:14;3.03;;;2.50;;
67363;SDS011;54250;45.572;38.086;2024-01-27T09:52:43;5.10;;;3.00;;
67363;SDS011;54250;45.572;38.086;2024-01-27T09:55:10;3.08;;;1.73;;
67363;SDS011;54250;45.572;38.086;2024-01-27T09:57:38;3.45;;;2.35;;
67363;SDS011;54250;45.572;38.086;2024-01-27T10:00:06;4.07;;;3.10;;
67363;SDS011;54250;45.572;38.086;2024-01-27T10:02:40;7.22;;;3.05;;
67363;SDS011;54250;45.572;38.086;2024-01-27T10:05:09;3.20;;;2.30;;
67363;SDS011;54250;45.572;38.086;2024-01-27T10:07:37;3.47;;;2.67;;
67363;SDS011;54250;45.572;38.086;2024-01-27T10:10:03;2.78;;;2.40;;
67363;SDS011;54250;45.572;38.086;2024-01-27T10:12:31;5.47;;;3.08;;
67363;SDS011;54250;45.572;38.086;2024-01-27T10:14:58;3.60;;;2.17;;
67363;SDS011;54250;45.572;38.086;2024-01-27T10:17:24;3.92;;;1.90;;
67363;SDS011;54250;45.572;38.086;2024-01-27T10:20:02;4.47;;;3.08;;
67363;SDS011;54250;45.572;38.086;2024-01-27T10:22:36;4.65;;;3.13;;
67363;SDS011;54250;45.572;38.086;2024-01-27T10:25:03;5.93;;;3.13;;
67363;SDS011;54250;45.572;38.086;2024-01-27T10:27:29;4.32;;;2.80;;
67363;SDS011;54250;45.572;38.086;2024-01-27T10:29:58;5.53;;;3.00;;
67363;SDS011;54250;45.572;38.086;2024-01-27T10:32:24;4.07;;;3.03;;
67363;SDS011;54250;45.572;38.086;2024-01-27T10:35:03;2.90;;;2.10;;
67363;SDS011;54250;45.572;38.086;2024-01-27T10:37:30;4.18;;;3.10;;
67363;SDS011;54250;45.572;38.086;2024-01-27T10:40:06;4.60;;;3.05;;
67363;SDS011;54250;45.572;38.086;2024-01-27T10:42:36;1.98;;;1.77;;
67363;SDS011;54250;45.572;38.086;2024-01-27T10:45:03;6.15;;;3.30;;
67363;SDS011;54250;45.572;38.086;2024-01-27T10:47:30;4.78;;;2.60;;
67363;SDS011;54250;45.572;38.086;2024-01-27T10:49:57;30.30;;;12.80;;
67363;SDS011;54250;45.572;38.086;2024-01-27T10:52:28;15.35;;;4.57;;
67363;SDS011;54250;45.572;38.086;2024-01-27T10:54:59;6.35;;;3.47;;
67363;SDS011;54250;45.572;38.086;2024-01-27T10:57:31;6.65;;;3.50;;
67363;SDS011;54250;45.572;38.086;2024-01-27T10:59:58;8.50;;;4.18;;
67363;SDS011;54250;45.572;38.086;2024-01-27T11:02:28;8.07;;;3.95;;
67363;SDS011;54250;45.572;38.086;2024-01-27T11:04:57;10.07;;;5.05;;
67363;SDS011;54250;45.572;38.086;2024-01-27T11:07:25;10.85;;;6.95;;
67363;SDS011;54250;45.572;38.086;2024-01-27T11:09:52;6.40;;;3.53;;
67363;SDS011;54250;45.572;38.086;2024-01-27T11:12:21;7.75;;;4.40;;
67363;SDS011;54250;45.572;38.086;2024-01-27T11:14:48;15.15;;;7.13;;
67363;SDS011;54250;45.572;38.086;2024-01-27T11:17:16;34.58;;;18.35;;
67363;SDS011;54250;45.572;38.086;2024-01-27T11:19:44;32.22;;;15.32;;
67363;SDS011;54250;45.572;38.086;2024-01-27T11:22:23;2.38;;;2.17;;
67363;SDS011;54250;45.572;38.086;2024-01-27T11:24:51;7.15;;;4.60;;
67363;SDS011;54250;45.572;38.086;2024-01-27T11:27:17;5.70;;;3.63;;
67363;SDS011;54250;45.572;38.086;2024-01-27T11:29:46;29.52;;;10.45;;
67363;SDS011;54250;45.572;38.086;2024-01-27T11:32:14;58.20;;;23.15;;
67363;SDS011;54250;45.572;38.086;2024-01-27T11:34:43;531.85;;;241.57;;
67363;SDS011;54250;45.572;38.086;2024-01-27T11:37:16;436.05;;;197.32;;
67363;SDS011;54250;45.572;38.086;2024-01-27T11:39:45;95.40;;;39.83;;
67363;SDS011;54250;45.572;38.086;2024-01-27T11:42:12;70.20;;;31.48;;
67363;SDS011;54250;45.572;38.086;2024-01-27T11:44:39;27.10;;;13.63;;
67363;SDS011;54250;45.572;38.086;2024-01-27T11:47:13;33.95;;;17.15;;
67363;SDS011;54250;45.572;38.086;2024-01-27T11:49:48;13.00;;;7.43;;
67363;SDS011;54250;45.572;38.086;2024-01-27T11:52:18;3.42;;;2.95;;
67363;SDS011;54250;45.572;38.086;2024-01-27T11:54:44;3.35;;;2.67;;
67363;SDS011;54250;45.572;38.086;2024-01-27T11:57:10;7.60;;;2.42;;
67363;SDS011;54250;45.572;38.086;2024-01-27T11:59:36;3.83;;;2.55;;
67363;SDS011;54250;45.572;38.086;2024-01-27T12:02:02;2.33;;;2.13;;
67363;SDS011;54250;45.572;38.086;2024-01-27T12:04:28;2.83;;;2.22;;
67363;SDS011;54250;45.572;38.086;2024-01-27T12:06:55;4.07;;;2.67;;
67363;SDS011;54250;45.572;38.086;2024-01-27T12:09:21;4.40;;;2.58;;
67363;SDS011;54250;45.572;38.086;2024-01-27T12:11:47;3.20;;;2.35;;
67363;SDS011;54250;45.572;38.086;2024-01-27T12:14:13;1.95;;;1.77;;
67363;SDS011;54250;45.572;38.086;2024-01-27T12:16:40;2.67;;;1.98;;
67363;SDS011;54250;45.572;38.086;2024-01-27T12:19:09;2.88;;;2.05;;
67363;SDS011;54250;45.572;38.086;2024-01-27T12:21:36;4.93;;;2.95;;
67363;SDS011;54250;45.572;38.086;2024-01-27T12:24:02;1.50;;;1.38;;
67363;SDS011;54250;45.572;38.086;2024-01-27T12:26:29;5.60;;;4.47;;
67363;SDS011;54250;45.572;38.086;2024-01-27T12:28:56;3.72;;;2.90;;
67363;SDS011;54250;45.572;38.086;2024-01-27T12:31:25;10.88;;;3.72;;
67363;SDS011;54250;45.572;38.086;2024-01-27T12:33:53;3.00;;;2.40;;
67363;SDS011;54250;45.572;38.086;2024-01-27T12:36:20;3.13;;;1.90;;
67363;SDS011;54250;45.572;38.086;2024-01-27T12:39:00;5.05;;;2.03;;
67363;SDS011;54250;45.572;38.086;2024-01-27T12:41:28;4.70;;;1.88;;
67363;SDS011;54250;45.572;38.086;2024-01-27T12:43:55;3.08;;;1.90;;
67363;SDS011;54250;45.572;38.086;2024-01-27T12:46:21;8.88;;;2.85;;
67363;SDS011;54250;45.572;38.086;2024-01-27T12:48:47;4.18;;;2.15;;
67363;SDS011;54250;45.572;38.086;2024-01-27T12:51:13;8.48;;;4.88;;
67363;SDS011;54250;45.572;38.086;2024-01-27T12:53:40;22.95;;;8.05;;
67363;SDS011;54250;45.572;38.086;2024-01-27T12:56:09;9.80;;;4.85;;
67363;SDS011;54250;45.572;38.086;2024-01-27T12:58:36;11.02;;;6.47;;
67363;SDS011;54250;45.572;38.086;2024-01-27T13:01:03;8.18;;;4.45;;
67363;SDS011;54250;45.572;38.086;2024-01-27T13:03:29;3.00;;;1.92;;
67363;SDS011;54250;45.572;38.086;2024-01-27T13:05:55;3.42;;;2.45;;
67363;SDS011;54250;45.572;38.086;2024-01-27T13:08:22;4.68;;;3.58;;
67363;SDS011;54250;45.572;38.086;2024-01-27T13:10:48;2.75;;;2.22;;
67363;SDS011;54250;45.572;38.086;2024-01-27T13:13:14;21.25;;;3.55;;
67363;SDS011;54250;45.572;38.086;2024-01-27T13:15:40;3.80;;;2.65;;
67363;SDS011;54250;45.572;38.086;2024-01-27T13:18:06;2.15;;;1.95;;
67363;SDS011;54250;45.572;38.086;2024-01-27T13:20:33;11.35;;;5.53;;
67363;SDS011;54250;45.572;38.086;2024-01-27T13:22:59;18.85;;;10.73;;
67363;SDS011;54250;45.572;38.086;2024-01-27T13:25:25;16.58;;;8.90;;
67363;SDS011;54250;45.572;38.086;2024-01-27T13:27:50;9.25;;;6.30;;
67363;SDS011;54250;45.572;38.086;2024-01-27T13:30:16;7.55;;;4.07;;
67363;SDS011;54250;45.572;38.086;2024-01-27T13:32:43;11.75;;;2.90;;
67363;SDS011;54250;45.572;38.086;2024-01-27T13:35:09;2.05;;;1.85;;
67363;SDS011;54250;45.572;38.086;2024-01-27T13:37:35;4.20;;;2.45;;
67363;SDS011;54250;45.572;38.086;2024-01-27T13:40:02;4.18;;;2.00;;
67363;SDS011;54250;45.572;38.086;2024-01-27T13:42:29;4.25;;;2.35;;
67363;SDS011;54250;45.572;38.086;2024-01-27T13:44:56;83.53;;;24.55;;
67363;SDS011;54250;45.572;38.086;2024-01-27T13:47:22;86.82;;;30.48;;
67363;SDS011;54250;45.572;38.086;2024-01-27T13:49:48;149.02;;;50.03;;
67363;SDS011;54250;45.572;38.086;2024-01-27T13:52:14;221.77;;;63.67;;
67363;SDS011;54250;45.572;38.086;2024-01-27T13:54:40;211.00;;;65.32;;
67363;SDS011;54250;45.572;38.086;2024-01-27T13:57:06;215.70;;;68.90;;
67363;SDS011;54250;45.572;38.086;2024-01-27T13:59:33;219.30;;;71.22;;
67363;SDS011;54250;45.572;38.086;2024-01-27T14:01:59;78.72;;;28.67;;
67363;SDS011;54250;45.572;38.086;2024-01-27T14:04:25;54.03;;;18.08;;
67363;SDS011;54250;45.572;38.086;2024-01-27T14:06:51;23.63;;;8.38;;
67363;SDS011;54250;45.572;38.086;2024-01-27T14:09:21;49.70;;;13.60;;
67363;SDS011;54250;45.572;38.086;2024-01-27T14:11:48;80.45;;;26.42;;
67363;SDS011;54250;45.572;38.086;2024-01-27T14:14:14;49.65;;;16.77;;
67363;SDS011;54250;45.572;38.086;2024-01-27T14:16:43;39.33;;;10.77;;
67363;SDS011;54250;45.572;38.086;2024-01-27T14:19:10;9.20;;;4.22;;
67363;SDS011;54250;45.572;38.086;2024-01-27T14:21:36;26.13;;;8.48;;
67363;SDS011;54250;45.572;38.086;2024-01-27T14:24:02;54.38;;;11.63;;
67363;SDS011;54250;45.572;38.086;2024-01-27T14:26:31;27.75;;;8.50;;
67363;SDS011;54250;45.572;38.086;2024-01-27T14:28:57;19.15;;;6.80;;